Hauptseite
METAR-TAF:

METAR-TAF

Flughäfen :

London Oxford Airport

Oxford, England

Breite: 51-50-13N, Länge: 1-19-12W, Höhe: 82 m

Beobachtung

Neuester Wetterbericht von vor 2 Stunden und 13 Minuten, um 22:20 UTC
Wind 4 kt aus Süd/Südwest
Temperatur 10°C
Luftfeuchtigkeit 93%
Luftdruck 1020 hPa
Sichtweite 10 km oder mehr
Durchbrochene Bewölkung in der Höhe von 1000 ft
Durchbrochene Bewölkung in der Höhe von 1200 ft

METAR: EGTK 142220Z 20004KT 9999 BKN010 BKN012 10/09 Q1020

Zeit: 00:33 (00:33 UTC)

Prognose

Neuester Wetterbericht von vor 4 Stunden und 31 Minuten, um 20:02 UTC
Gültige Prognose vom 14 um 21 UTC bis 14 um 23 UTC
Wind 6 kt aus Süd
Sichtweite 10 km oder mehr
Aufgelockert bewölkt in der Höhe von 1500 ft
Wahrscheinlichkeit 30% :
Zeitweise
vom 14 um 21 UTC bis 14 um 23 UTC
Durchbrochene Bewölkung in der Höhe von 800 ft

TAF: EGTK 142002Z 1421/1423 19006KT 9999 SCT015 PROB30 TEMPO 1421/1423 BKN008

Wetterbeobachtungen und Prognosen von mehr als 4000 Flughäfen (METAR und TAF Bericht).

Die verfügbaren Stationen werden durch gelbe und rote Markierungen auf der Karte dargestellt.

Führen Sie die Maus auf sie, um den Namen der Station zu sehen.

Darauf klicken, um die Beobachtung von Wetterbeobachtungen und Prognosen zu sehen.

Um die Karte zu ändern : klicken Sie auf den grünen Tasten mit einem schwarzen Kreuz Zum Vergrößern, auf den grünen Button mit einem Gedankenstrich zu verkleinern, oder auf die grünen Pfeile für benachbarte Karten.


METAR-TAF: